Time;durP1;ratioP1;P1;durP2;ratioP2;P2;SDS_P1;SDS_P2;PMS_P1;PMS_P2;Temp;Humidity;BMP_temperature;BMP_pressure;BME280_temperature;BME280_humidity;BME280_pressure;Samples;Min_cycle;Max_cycle;Signal;HPM_P1;HPM_P2
2021/06/11 00:00:11;;;;;;;15.57;13.77;;;12.70;99.90;;;;;;4998402;28;20053;-88
2021/06/11 00:02:37;;;;;;;14.88;13.38;;;12.70;99.90;;;;;;4994571;28;20149;-88
2021/06/11 00:05:05;;;;;;;15.20;13.65;;;12.70;99.90;;;;;;4998545;28;20054;-88
2021/06/11 00:07:33;;;;;;;15.23;13.48;;;12.70;99.90;;;;;;5015687;28;20042;-89
2021/06/11 00:10:05;;;;;;;14.93;13.35;;;12.80;99.90;;;;;;4998055;28;20585;-89
2021/06/11 00:12:32;;;;;;;13.55;12.15;;;12.80;99.90;;;;;;4998211;28;20081;-89
2021/06/11 00:14:59;;;;;;;14.23;12.85;;;12.70;99.90;;;;;;4998074;28;20052;-89
2021/06/11 00:17:26;;;;;;;15.65;13.23;;;12.70;99.90;;;;;;4997907;28;20058;-89
2021/06/11 00:19:53;;;;;;;13.85;12.63;;;12.60;99.90;;;;;;4998141;28;20529;-89
2021/06/11 00:22:20;;;;;;;13.07;11.80;;;12.50;99.90;;;;;;4997890;28;20403;-89
2021/06/11 00:24:47;;;;;;;14.02;12.57;;;12.50;99.90;;;;;;4997975;28;20085;-89
2021/06/11 00:27:13;;;;;;;16.38;14.48;;;12.40;99.90;;;;;;4997502;28;20050;-89
2021/06/11 00:29:40;;;;;;;16.17;14.57;;;12.30;99.90;;;;;;5015150;28;20052;-89
2021/06/11 00:32:07;;;;;;;17.58;15.50;;;12.30;99.90;;;;;;4997486;28;20049;-89
2021/06/11 00:34:34;;;;;;;15.35;13.95;;;12.30;99.90;;;;;;4997822;28;20068;-89
2021/06/11 00:37:01;;;;;;;18.67;15.43;;;12.30;99.90;;;;;;4997274;28;20054;-89
2021/06/11 00:39:28;;;;;;;15.73;14.10;;;12.30;99.90;;;;;;4997747;28;20048;-89
2021/06/11 00:42:00;;;;;;;17.17;14.05;;;12.20;99.90;;;;;;4997618;28;20136;-89
2021/06/11 00:44:28;;;;;;;14.93;13.52;;;12.30;99.90;;;;;;4997478;28;20116;-89
2021/06/11 00:46:55;;;;;;;16.77;15.05;;;12.30;99.90;;;;;;4997123;28;20054;-89
2021/06/11 00:49:22;;;;;;;19.17;15.48;;;12.30;99.90;;;;;;4996825;28;20061;-89
2021/06/11 00:51:49;;;;;;;16.60;15.00;;;12.30;99.90;;;;;;4997341;28;20423;-89
2021/06/11 00:54:17;;;;;;;18.13;16.15;;;12.20;99.90;;;;;;4997132;28;20053;-89
2021/06/11 00:56:44;;;;;;;17.00;15.40;;;12.20;99.90;;;;;;4996894;28;20545;-89
2021/06/11 00:59:11;;;;;;;19.48;17.45;;;12.10;99.90;;;;;;4996750;28;20468;-90
2021/06/11 01:01:41;;;;;;;16.70;15.10;;;12.10;99.90;;;;;;4997164;28;20050;-89
2021/06/11 01:04:09;;;;;;;17.20;15.55;;;12.10;99.90;;;;;;4997073;28;20415;-89
2021/06/11 01:06:40;;;;;;;17.30;15.27;;;12.10;99.90;;;;;;4996996;28;20053;-89
2021/06/11 01:09:09;;;;;;;18.98;16.10;;;12.10;99.90;;;;;;5013971;28;20109;-89
2021/06/11 01:11:38;;;;;;;17.50;15.65;;;12.10;99.90;;;;;;4996988;28;20148;-89
2021/06/11 01:14:06;;;;;;;18.52;16.52;;;12.00;99.90;;;;;;5013922;28;20042;-89
2021/06/11 01:16:33;;;;;;;18.77;16.55;;;12.00;99.90;;;;;;5014099;28;20450;-89
2021/06/11 01:19:00;;;;;;;18.50;16.50;;;12.00;99.90;;;;;;4997679;28;20046;-90
2021/06/11 01:21:30;;;;;;;19.48;17.58;;;12.00;99.90;;;;;;4998306;28;20141;-89
2021/06/11 01:24:02;;;;;;;20.90;16.35;;;12.00;99.90;;;;;;4998149;28;20052;-89
2021/06/11 01:26:37;;;;;;;17.30;15.68;;;12.00;99.90;;;;;;5013672;28;20068;-88
2021/06/11 01:29:07;;;;;;;18.25;16.42;;;11.90;99.90;;;;;;4996665;28;20722;-89
2021/06/11 01:31:36;;;;;;;20.58;17.05;;;11.90;99.90;;;;;;4996685;28;20050;-89
2021/06/11 01:34:10;;;;;;;19.08;17.17;;;11.80;99.90;;;;;;4996705;28;20042;-89
2021/06/11 01:36:41;;;;;;;18.33;16.40;;;11.90;99.90;;;;;;4996934;28;20063;-89
2021/06/11 01:39:10;;;;;;;18.15;16.25;;;11.90;99.90;;;;;;5013698;28;20050;-89
2021/06/11 01:41:39;;;;;;;19.15;16.90;;;12.00;99.90;;;;;;4996781;28;20314;-89
2021/06/11 01:44:09;;;;;;;17.98;16.27;;;12.00;99.90;;;;;;5013579;28;20497;-89
2021/06/11 01:46:37;;;;;;;19.65;16.92;;;12.00;99.90;;;;;;4996497;28;20050;-90
2021/06/11 01:49:05;;;;;;;18.88;16.70;;;12.00;99.90;;;;;;4996152;28;20054;-90
2021/06/11 01:51:34;;;;;;;21.33;18.45;;;12.00;99.90;;;;;;4996170;28;20050;-89
2021/06/11 01:54:04;;;;;;;21.23;18.25;;;11.90;99.90;;;;;;4996394;28;20056;-89
2021/06/11 01:56:32;;;;;;;19.35;17.40;;;11.90;99.90;;;;;;4996542;28;20053;-89
2021/06/11 01:58:58;;;;;;;20.30;16.63;;;12.00;99.90;;;;;;4996365;28;20137;-89
2021/06/11 02:01:26;;;;;;;21.52;16.88;;;12.00;99.90;;;;;;5013364;28;20046;-89
2021/06/11 02:03:53;;;;;;;19.45;17.38;;;12.10;99.90;;;;;;4996499;28;20054;-88
2021/06/11 02:06:21;;;;;;;20.77;17.50;;;12.10;99.90;;;;;;4996162;28;20058;-89
2021/06/11 02:08:51;;;;;;;19.92;17.73;;;12.20;99.90;;;;;;5017249;28;20052;-89
2021/06/11 02:11:19;;;;;;;16.95;15.15;;;12.10;99.90;;;;;;5000140;28;20108;-89
2021/06/11 02:13:48;;;;;;;18.48;16.63;;;12.30;99.90;;;;;;5017435;28;20125;-89
2021/06/11 02:16:17;;;;;;;17.75;15.95;;;12.30;99.90;;;;;;4999855;28;20513;-88
2021/06/11 02:18:45;;;;;;;16.98;15.35;;;12.30;99.90;;;;;;5017278;28;20593;-89
2021/06/11 02:21:13;;;;;;;19.05;15.75;;;12.30;99.90;;;;;;4999707;28;20054;-89
2021/06/11 02:23:40;;;;;;;20.60;16.00;;;12.30;99.90;;;;;;5017397;28;20045;-89
2021/06/11 02:26:12;;;;;;;18.13;16.33;;;12.30;99.90;;;;;;5000060;28;20124;-89
2021/06/11 02:28:39;;;;;;;20.20;16.98;;;12.30;99.90;;;;;;5017100;28;20042;-89
2021/06/11 02:31:06;;;;;;;21.13;16.88;;;12.20;99.90;;;;;;4999344;28;20049;-89
2021/06/11 02:33:33;;;;;;;16.60;15.05;;;12.20;99.90;;;;;;4999865;28;20061;-89
2021/06/11 02:36:00;;;;;;;19.25;17.23;;;12.20;99.90;;;;;;4999734;28;20125;-89
2021/06/11 02:38:27;;;;;;;17.60;15.15;;;12.30;99.90;;;;;;4999719;28;20054;-89
2021/06/11 02:40:57;;;;;;;18.00;15.90;;;12.30;99.90;;;;;;4999576;28;20052;-90
2021/06/11 02:43:25;;;;;;;18.02;16.15;;;12.30;99.90;;;;;;4999610;28;20053;-89
2021/06/11 02:46:05;;;;;;;17.40;15.60;;;12.20;99.90;;;;;;4999666;28;20483;-89
2021/06/11 02:48:55;;;;;;;19.85;17.65;;;12.30;99.90;;;;;;4999639;28;20418;-89
2021/06/11 02:51:32;;;;;;;18.27;15.57;;;12.30;99.90;;;;;;4999374;28;20088;-89
2021/06/11 02:54:01;;;;;;;23.30;16.52;;;12.30;99.90;;;;;;4999409;28;20137;-88
2021/06/11 02:56:41;;;;;;;19.17;17.17;;;12.20;99.90;;;;;;4999396;28;20056;-89
2021/06/11 02:59:13;;;;;;;22.63;18.88;;;12.20;99.90;;;;;;4999296;28;20054;-89
2021/06/11 03:01:47;;;;;;;20.75;18.65;;;12.20;99.90;;;;;;4999127;28;20513;-88
2021/06/11 03:04:15;;;;;;;19.65;17.60;;;12.20;99.90;;;;;;4999258;28;20177;-89
2021/06/11 03:06:47;;;;;;;18.75;16.92;;;12.20;99.90;;;;;;4999019;28;20053;-89
2021/06/11 03:09:14;;;;;;;19.08;16.50;;;12.30;99.90;;;;;;4999132;28;20552;-89
2021/06/11 03:11:42;;;;;;;17.80;16.00;;;12.30;99.90;;;;;;4999072;28;20042;-89
2021/06/11 03:14:11;;;;;;;22.40;18.27;;;12.30;99.90;;;;;;4999076;28;20569;-89
2021/06/11 03:16:43;;;;;;;18.98;16.95;;;12.30;99.90;;;;;;5016051;28;20048;-89
2021/06/11 03:19:12;;;;;;;18.95;17.05;;;12.30;99.90;;;;;;4998621;28;20064;-89
2021/06/11 03:21:52;;;;;;;21.30;16.83;;;12.30;99.90;;;;;;4999109;28;20406;-89
2021/06/11 03:24:27;;;;;;;17.38;15.68;;;12.30;99.90;;;;;;4999036;28;20406;-90
2021/06/11 03:27:06;;;;;;;17.70;16.00;;;12.30;99.90;;;;;;4998682;28;20562;-89
2021/06/11 03:29:36;;;;;;;19.23;17.23;;;12.30;99.90;;;;;;4998571;28;20049;-89
2021/06/11 03:32:08;;;;;;;20.77;18.60;;;12.20;99.90;;;;;;4998927;28;20056;-90
2021/06/11 03:34:39;;;;;;;20.42;16.88;;;12.20;99.90;;;;;;4998807;28;20483;-90
2021/06/11 03:37:11;;;;;;;21.10;17.60;;;12.30;99.90;;;;;;4998791;28;20049;-90
2021/06/11 03:39:53;;;;;;;19.10;16.90;;;12.20;99.90;;;;;;4999658;28;20475;-89
2021/06/11 03:42:21;;;;;;;20.10;17.60;;;12.30;99.90;;;;;;5016037;28;20050;-89
2021/06/11 03:44:51;;;;;;;19.50;17.55;;;12.30;99.90;;;;;;4998786;28;20046;-89
2021/06/11 03:47:20;;;;;;;20.92;17.33;;;12.30;99.90;;;;;;5015618;28;20076;-90
2021/06/11 03:49:50;;;;;;;17.05;15.25;;;12.30;99.90;;;;;;4998735;28;20096;-89
2021/06/11 03:52:24;;;;;;;18.20;16.25;;;12.30;99.90;;;;;;4998464;28;20513;-88
2021/06/11 03:54:55;;;;;;;18.83;16.92;;;12.30;99.90;;;;;;4998441;28;20054;-89
2021/06/11 03:57:26;;;;;;;18.42;16.63;;;12.40;99.90;;;;;;4998332;28;20046;-89
2021/06/11 03:59:54;;;;;;;21.52;17.42;;;12.40;99.90;;;;;;4998760;28;20089;-89
2021/06/11 04:02:21;;;;;;;19.23;16.45;;;12.50;99.90;;;;;;5015264;28;20391;-89
2021/06/11 04:04:48;;;;;;;22.75;18.08;;;12.50;99.90;;;;;;5015562;28;20406;-89
2021/06/11 04:07:23;;;;;;;17.77;16.08;;;12.60;99.90;;;;;;5015495;28;20069;-89
2021/06/11 04:09:57;;;;;;;22.67;17.50;;;12.70;99.90;;;;;;4998485;28;20052;-89
2021/06/11 04:12:32;;;;;;;17.80;15.95;;;12.60;99.90;;;;;;5015270;28;20050;-90
2021/06/11 04:15:00;;;;;;;18.17;16.38;;;12.70;99.90;;;;;;4998135;28;20049;-89
2021/06/11 04:17:30;;;;;;;18.10;15.05;;;12.70;99.90;;;;;;4997966;28;20137;-89
2021/06/11 04:19:59;;;;;;;15.80;14.00;;;12.80;99.90;;;;;;4997961;28;20052;-89
2021/06/11 04:22:33;;;;;;;20.90;15.60;;;12.90;99.90;;;;;;4997928;28;20042;-88
2021/06/11 04:25:01;;;;;;;14.30;12.85;;;13.00;99.90;;;;;;4997580;28;20056;-89
2021/06/11 04:27:33;;;;;;;14.90;13.40;;;13.10;99.90;;;;;;4997684;28;20049;-89
2021/06/11 04:30:00;;;;;;;15.30;13.80;;;13.20;99.90;;;;;;5014202;28;20054;-89
2021/06/11 04:32:28;;;;;;;16.00;13.35;;;13.20;99.90;;;;;;4997489;28;20053;-89
2021/06/11 04:34:56;;;;;;;12.82;11.57;;;13.30;99.90;;;;;;4997404;28;20050;-89
2021/06/11 04:37:23;;;;;;;12.98;11.77;;;13.40;99.90;;;;;;4997138;28;20137;-89
2021/06/11 04:39:51;;;;;;;13.10;11.68;;;13.40;99.90;;;;;;4997368;28;20049;-89
2021/06/11 04:42:17;;;;;;;12.25;11.25;;;13.50;99.90;;;;;;4997205;28;20210;-89
2021/06/11 04:44:46;;;;;;;12.63;11.35;;;13.60;99.90;;;;;;4997159;28;20128;-89
2021/06/11 04:47:12;;;;;;;11.35;10.25;;;13.80;99.90;;;;;;4996779;28;20046;-89
2021/06/11 04:49:40;;;;;;;12.55;11.35;;;13.80;99.90;;;;;;4997365;28;20049;-90
2021/06/11 04:52:07;;;;;;;11.10;10.00;;;13.90;99.90;;;;;;4997131;28;20083;-89
2021/06/11 04:54:33;;;;;;;9.48;8.75;;;14.30;99.90;;;;;;4997244;28;20045;-89
2021/06/11 04:57:01;;;;;;;9.75;8.10;;;14.70;99.90;;;;;;4996874;28;20056;-89
2021/06/11 04:59:28;;;;;;;8.75;8.00;;;15.00;99.90;;;;;;4997274;28;20046;-89
2021/06/11 05:01:55;;;;;;;8.80;8.00;;;15.30;99.90;;;;;;4997120;28;20060;-89
2021/06/11 05:04:23;;;;;;;7.93;7.28;;;15.40;99.90;;;;;;4997103;28;20046;-89
2021/06/11 05:06:54;;;;;;;7.60;6.88;;;15.70;99.90;;;;;;4997373;28;20103;-88
2021/06/11 05:09:21;;;;;;;6.82;6.18;;;16.10;99.90;;;;;;5013969;28;20048;-88
2021/06/11 05:11:48;;;;;;;8.18;5.50;;;17.00;99.90;;;;;;4996856;28;20049;-87
2021/06/11 05:14:15;;;;;;;8.45;5.57;;;18.20;99.90;;;;;;4996837;28;20052;-88
2021/06/11 05:16:42;;;;;;;6.03;5.43;;;19.40;99.90;;;;;;5014121;28;20076;-88
2021/06/11 05:19:09;;;;;;;5.85;5.40;;;20.60;99.90;;;;;;5013822;28;20092;-89
2021/06/11 05:21:36;;;;;;;5.72;4.88;;;21.60;99.90;;;;;;4997067;28;20054;-89
2021/06/11 05:24:03;;;;;;;5.28;4.88;;;22.50;99.90;;;;;;4996634;28;20132;-86
2021/06/11 05:26:30;;;;;;;4.78;4.38;;;23.40;99.90;;;;;;4996768;28;20427;-88
2021/06/11 05:28:57;;;;;;;4.95;4.50;;;24.20;99.90;;;;;;4996716;28;20050;-87
2021/06/11 05:31:24;;;;;;;6.63;4.95;;;24.80;99.90;;;;;;4996845;28;20433;-87
2021/06/11 05:33:50;;;;;;;5.18;4.70;;;24.60;99.90;;;;;;4996854;28;20495;-87
2021/06/11 05:36:17;;;;;;;11.10;4.30;;;24.60;99.90;;;;;;4996495;28;20049;-87
2021/06/11 05:38:45;;;;;;;6.68;4.78;;;24.10;99.90;;;;;;4996490;28;20071;-88
2021/06/11 05:41:12;;;;;;;4.93;4.45;;;24.80;99.90;;;;;;4996403;28;20134;-87
2021/06/11 05:43:38;;;;;;;17.35;5.47;;;25.30;99.90;;;;;;4996823;28;20052;-87
2021/06/11 05:46:05;;;;;;;11.18;4.72;;;25.40;99.90;;;;;;4996580;28;20132;-87
2021/06/11 05:48:32;;;;;;;10.38;4.55;;;25.50;99.90;;;;;;5002627;28;20050;-87
2021/06/11 05:50:59;;;;;;;10.95;4.97;;;26.20;99.90;;;;;;4997532;28;20136;-87
2021/06/11 05:53:26;;;;;;;5.70;5.03;;;26.40;99.90;;;;;;4996105;28;20140;-87
2021/06/11 05:55:54;;;;;;;8.57;4.55;;;26.00;99.90;;;;;;4996687;28;20088;-88
2021/06/11 05:58:21;;;;;;;6.63;3.83;;;26.10;99.90;;;;;;4996921;28;20050;-87
2021/06/11 06:00:47;;;;;;;15.57;5.32;;;26.80;99.90;;;;;;4996497;28;20402;-88
2021/06/11 06:03:16;;;;;;;14.65;5.28;;;27.40;99.90;;;;;;4996332;28;20463;-88
2021/06/11 06:05:42;;;;;;;16.33;5.45;;;27.60;97.90;;;;;;4996231;28;20414;-86
2021/06/11 06:08:12;;;;;;;14.88;4.93;;;27.30;98.00;;;;;;4996772;28;20042;-87
2021/06/11 06:10:39;;;;;;;8.82;4.80;;;27.90;96.90;;;;;;4996413;28;20046;-86
2021/06/11 06:13:06;;;;;;;8.75;4.45;;;28.20;95.60;;;;;;4995751;28;20445;-87
2021/06/11 06:15:33;;;;;;;8.52;5.00;;;29.00;94.60;;;;;;4996182;28;20049;-87
2021/06/11 06:18:00;;;;;;;12.20;4.80;;;29.60;91.60;;;;;;4996463;28;20131;-87
2021/06/11 06:20:27;;;;;;;12.38;4.60;;;29.20;91.10;;;;;;4996127;28;20065;-87
2021/06/11 06:22:54;;;;;;;9.45;5.50;;;29.70;90.70;;;;;;4996328;28;20053;-88
2021/06/11 06:25:21;;;;;;;12.70;5.00;;;30.60;89.70;;;;;;4996249;28;20467;-87
2021/06/11 06:27:47;;;;;;;9.73;4.32;;;31.80;83.20;;;;;;4996330;28;20136;-87
2021/06/11 06:30:15;;;;;;;13.55;5.18;;;32.20;78.50;;;;;;4996286;28;20052;-86
2021/06/11 06:32:42;;;;;;;9.90;4.38;;;32.50;76.60;;;;;;4996153;28;20042;-88
2021/06/11 06:35:14;;;;;;;9.88;4.35;;;33.20;74.00;;;;;;4996596;28;20064;-86
2021/06/11 06:37:40;;;;;;;5.45;4.18;;;32.20;75.10;;;;;;4996170;28;20050;-87
2021/06/11 06:40:08;;;;;;;5.63;4.47;;;31.90;75.10;;;;;;4996157;28;20054;-87
2021/06/11 06:42:36;;;;;;;13.60;5.53;;;32.60;74.30;;;;;;4996393;28;20050;-88
2021/06/11 06:45:05;;;;;;;10.27;5.05;;;32.90;72.00;;;;;;4996104;28;20081;-88
2021/06/11 06:47:33;;;;;;;9.38;4.93;;;32.60;71.40;;;;;;4996193;28;20058;-87
2021/06/11 06:50:00;;;;;;;12.57;5.43;;;32.70;71.90;;;;;;4996137;28;20049;-87
2021/06/11 06:52:26;;;;;;;12.95;5.18;;;31.40;74.70;;;;;;4996137;28;20053;-88
2021/06/11 06:54:53;;;;;;;6.25;4.70;;;32.30;73.10;;;;;;4999540;28;20057;-88
2021/06/11 06:57:20;;;;;;;10.27;4.75;;;32.10;74.20;;;;;;4999768;28;20140;-88
2021/06/11 06:59:47;;;;;;;6.50;4.43;;;32.20;75.30;;;;;;4999677;28;20058;-90
2021/06/11 07:02:13;;;;;;;6.30;4.78;;;32.10;72.80;;;;;;4999379;28;20125;-87
2021/06/11 07:04:40;;;;;;;7.60;4.93;;;32.40;71.60;;;;;;4999779;28;20054;-88
2021/06/11 07:07:11;;;;;;;5.63;5.05;;;33.00;72.10;;;;;;4999290;28;20056;-87
2021/06/11 07:09:38;;;;;;;8.05;4.75;;;33.10;72.00;;;;;;4999531;28;20056;-91
2021/06/11 07:12:05;;;;;;;5.75;4.97;;;33.20;69.40;;;;;;4999335;28;20045;-88
2021/06/11 07:14:32;;;;;;;6.38;4.13;;;33.60;70.10;;;;;;4999398;28;20511;-89
2021/06/11 07:16:58;;;;;;;8.30;4.55;;;34.50;71.90;;;;;;4999075;28;20140;-89
2021/06/11 07:19:25;;;;;;;6.38;4.72;;;34.70;68.20;;;;;;4999433;28;20104;-89
2021/06/11 07:21:54;;;;;;;8.65;4.72;;;34.20;68.30;;;;;;4999831;28;20057;-88
2021/06/11 07:24:21;;;;;;;7.78;4.57;;;34.10;69.00;;;;;;4999327;28;20140;-89
2021/06/11 07:26:48;;;;;;;6.85;4.60;;;33.80;70.70;;;;;;4998776;28;20050;-88
2021/06/11 07:29:15;;;;;;;5.00;4.55;;;34.00;69.90;;;;;;4998869;28;20100;-90
2021/06/11 07:31:42;;;;;;;5.38;4.55;;;34.40;67.20;;;;;;4999050;28;20054;-90
2021/06/11 07:34:09;;;;;;;4.78;4.47;;;35.10;66.40;;;;;;4998807;28;20148;-87
2021/06/11 07:36:35;;;;;;;5.45;4.90;;;34.70;65.70;;;;;;4998928;28;20487;-91
2021/06/11 07:39:03;;;;;;;5.95;4.72;;;35.70;64.00;;;;;;4998698;28;20060;-91
2021/06/11 07:41:30;;;;;;;4.97;4.63;;;35.60;64.90;;;;;;4999191;28;20050;-92
2021/06/11 07:43:57;;;;;;;4.88;4.50;;;34.80;62.90;;;;;;4998628;28;20088;-89
2021/06/11 07:46:24;;;;;;;5.25;4.88;;;34.00;65.10;;;;;;4998628;28;20471;-91
2021/06/11 07:48:50;;;;;;;5.57;4.95;;;33.70;63.90;;;;;;4998944;28;20053;-89
2021/06/11 07:51:17;;;;;;;5.45;5.10;;;34.30;63.30;;;;;;4998849;28;20046;-89
2021/06/11 07:53:44;;;;;;;6.07;5.57;;;34.70;64.00;;;;;;4999637;28;20050;-92
2021/06/11 07:56:12;;;;;;;4.88;4.63;;;34.40;63.20;;;;;;4998289;28;20053;-88
2021/06/11 07:58:39;;;;;;;7.63;4.43;;;34.70;63.70;;;;;;4998382;28;20060;-88
2021/06/11 08:01:05;;;;;;;5.32;3.80;;;35.90;63.10;;;;;;4998268;28;20052;-88
2021/06/11 08:03:32;;;;;;;5.38;4.97;;;37.00;60.70;;;;;;4999299;28;20052;-90
2021/06/11 08:05:59;;;;;;;4.35;3.95;;;36.10;59.40;;;;;;4997480;28;20137;-88
2021/06/11 08:08:26;;;;;;;6.32;4.35;;;36.70;58.80;;;;;;4998268;28;20057;-92
2021/06/11 08:10:53;;;;;;;4.93;4.47;;;37.20;59.00;;;;;;4999390;28;20157;-87
2021/06/11 08:13:20;;;;;;;4.18;3.88;;;36.40;57.70;;;;;;5000164;28;20140;-89
2021/06/11 08:15:47;;;;;;;3.72;3.53;;;36.00;58.70;;;;;;4998506;28;20418;-88
2021/06/11 08:18:14;;;;;;;5.32;3.83;;;36.60;58.30;;;;;;4998051;28;20050;-85
2021/06/11 08:20:41;;;;;;;3.92;3.70;;;37.70;57.90;;;;;;4998091;28;20054;-86
2021/06/11 08:23:08;;;;;;;6.65;3.38;;;39.70;55.80;;;;;;4997811;28;20512;-88
2021/06/11 08:25:36;;;;;;;3.65;3.35;;;40.90;53.70;;;;;;4997795;28;20501;-87
2021/06/11 08:28:03;;;;;;;4.28;2.60;;;41.70;51.10;;;;;;4998794;28;20058;-87
2021/06/11 08:30:30;;;;;;;6.57;4.47;;;41.10;49.90;;;;;;4998965;28;20132;-94
2021/06/11 08:32:59;;;;;;;8.38;3.95;;;40.10;49.50;;;;;;4998227;28;20128;-87
2021/06/11 08:35:27;;;;;;;16.88;4.38;;;38.40;52.90;;;;;;4997977;28;20049;-89
2021/06/11 08:37:54;;;;;;;4.78;3.47;;;38.60;51.30;;;;;;4997697;28;20073;-87
2021/06/11 08:40:21;;;;;;;5.70;2.78;;;38.80;50.80;;;;;;4997767;28;20053;-87
2021/06/11 08:42:48;;;;;;;2.90;2.80;;;37.60;51.00;;;;;;4997678;28;20410;-88
2021/06/11 08:45:16;;;;;;;6.72;4.05;;;36.20;51.50;;;;;;4997352;28;20053;-88
2021/06/11 08:47:49;;;;;;;3.63;3.10;;;33.80;55.70;;;;;;4997450;28;20054;-87
2021/06/11 08:50:26;;;;;;;3.97;3.00;;;32.90;58.30;;;;;;4997248;28;20145;-87
2021/06/11 08:52:55;;;;;;;3.72;3.42;;;32.50;60.20;;;;;;4997451;28;20415;-87
2021/06/11 08:55:23;;;;;;;5.30;3.08;;;33.30;58.80;;;;;;4997368;28;20161;-87
2021/06/11 08:57:50;;;;;;;3.78;3.40;;;36.10;57.50;;;;;;4997345;28;20132;-87
2021/06/11 09:00:17;;;;;;;3.60;3.40;;;37.20;54.00;;;;;;4997058;28;20065;-87
2021/06/11 09:03:07;;;;;;;2.80;2.60;;;38.40;53.30;;;;;;4997287;28;20073;-88
2021/06/11 09:05:35;;;;;;;3.05;1.98;;;38.70;50.50;;;;;;4997035;28;20085;-89
2021/06/11 09:08:23;;;;;;;6.22;1.98;;;37.00;49.00;;;;;;4997150;28;20188;-87
2021/06/11 09:11:14;;;;;;;6.82;2.60;;;38.70;50.90;;;;;;4997329;28;20046;-93
2021/06/11 09:13:43;;;;;;;2.08;1.90;;;39.50;48.60;;;;;;5013646;28;20049;-88
2021/06/11 09:16:28;;;;;;;2.53;1.58;;;39.30;46.30;;;;;;4996851;28;20080;-87
2021/06/11 09:18:57;;;;;;;6.07;1.92;;;40.90;45.90;;;;;;4996949;28;20050;-89
2021/06/11 09:21:33;;;;;;;1.70;1.60;;;40.10;46.00;;;;;;4997005;28;20046;-86
2021/06/11 09:24:14;;;;;;;1.98;1.88;;;38.30;48.40;;;;;;4996384;28;20517;-86
2021/06/11 09:26:42;;;;;;;3.33;2.50;;;37.60;49.30;;;;;;4996932;28;20056;-88
2021/06/11 09:29:23;;;;;;;4.30;2.28;;;37.20;51.00;;;;;;4996613;28;20074;-87
2021/06/11 09:31:50;;;;;;;1.90;1.80;;;35.80;51.60;;;;;;4996826;28;20052;-87
2021/06/11 09:34:34;;;;;;;2.30;1.95;;;36.10;52.50;;;;;;4996322;28;20064;-87
2021/06/11 09:37:06;;;;;;;2.00;1.85;;;37.50;50.40;;;;;;4996715;28;20054;-89
2021/06/11 09:39:48;;;;;;;3.10;1.80;;;39.10;49.00;;;;;;4997032;28;20050;-88
2021/06/11 09:42:18;;;;;;;2.13;1.60;;;38.50;45.70;;;;;;4996738;28;20058;-87
2021/06/11 09:45:03;;;;;;;1.67;1.48;;;39.70;47.60;;;;;;4996558;28;20056;-89
2021/06/11 09:47:44;;;;;;;1.77;1.67;;;39.00;46.20;;;;;;4996633;28;20058;-89
2021/06/11 09:50:17;;;;;;;1.63;1.52;;;36.30;48.80;;;;;;4996650;28;20095;-86
2021/06/11 09:52:58;;;;;;;1.70;1.60;;;34.10;52.70;;;;;;4996463;28;20050;-88
2021/06/11 09:55:39;;;;;;;2.30;1.98;;;34.70;52.60;;;;;;4996643;28;20542;-88
2021/06/11 09:58:23;;;;;;;2.25;2.08;;;36.30;51.70;;;;;;4996786;28;20257;-88
2021/06/11 10:01:01;;;;;;;1.50;1.50;;;35.70;51.20;;;;;;4996392;28;20046;-87
2021/06/11 10:03:34;;;;;;;1.60;1.50;;;36.70;49.10;;;;;;4996580;28;20052;-88
2021/06/11 10:06:09;;;;;;;2.35;1.60;;;35.50;49.50;;;;;;4996457;28;20050;-87
2021/06/11 10:08:37;;;;;;;1.90;1.35;;;32.80;51.30;;;;;;4996670;28;20054;-88
2021/06/11 10:11:09;;;;;;;2.42;1.60;;;31.50;55.70;;;;;;4996175;28;20056;-87
2021/06/11 10:13:37;;;;;;;2.33;1.60;;;32.00;56.20;;;;;;4997328;28;20092;-87
2021/06/11 10:16:07;;;;;;;1.77;1.63;;;33.40;54.80;;;;;;4996879;28;20056;-87
2021/06/11 10:18:34;;;;;;;2.78;1.73;;;33.50;53.60;;;;;;4996401;28;20049;-87
2021/06/11 10:21:02;;;;;;;2.35;1.50;;;33.20;54.20;;;;;;4996463;28;20398;-86
2021/06/11 10:23:30;;;;;;;2.95;1.58;;;32.50;54.70;;;;;;4996248;28;20413;-86
2021/06/11 10:25:58;;;;;;;6.57;1.70;;;31.90;56.40;;;;;;4996823;28;20056;-90
2021/06/11 10:28:49;;;;;;;1.80;1.40;;;34.10;54.60;;;;;;4998886;28;20541;-87
2021/06/11 10:31:19;;;;;;;1.75;1.40;;;34.80;51.50;;;;;;5004448;28;20085;-88
2021/06/11 10:33:46;;;;;;;3.63;1.45;;;31.90;54.40;;;;;;4999937;28;20049;-89
2021/06/11 10:36:47;;;;;;;1.80;1.67;;;31.10;55.90;;;;;;4999915;28;20057;-88
2021/06/11 10:39:13;;;;;;;4.57;1.40;;;30.60;58.20;;;;;;5017208;28;20056;-87
2021/06/11 10:41:59;;;;;;;2.13;1.17;;;31.70;57.00;;;;;;4999875;28;20049;-88
2021/06/11 10:44:36;;;;;;;2.08;1.30;;;34.90;54.10;;;;;;4999689;28;20121;-92
2021/06/11 10:47:15;;;;;;;8.50;1.80;;;36.20;51.80;;;;;;5000645;28;20073;-88
2021/06/11 10:49:58;;;;;;;2.30;1.40;;;37.20;50.20;;;;;;5000930;28;20144;-94
2021/06/11 10:52:47;;;;;;;1.30;1.20;;;36.90;49.40;;;;;;4999868;28;20046;-87
2021/06/11 10:55:14;;;;;;;2.25;1.23;;;39.40;47.90;;;;;;4999423;28;20057;-86
2021/06/11 10:57:46;;;;;;;3.00;1.27;;;39.20;46.80;;;;;;5000131;28;20062;-90
2021/06/11 11:00:19;;;;;;;4.32;1.20;;;36.60;47.10;;;;;;4999466;28;20089;-87
2021/06/11 11:02:48;;;;;;;1.95;0.95;;;34.80;49.80;;;;;;4999868;28;20148;-87
2021/06/11 11:05:28;;;;;;;1.17;1.08;;;34.30;51.60;;;;;;4999046;28;20054;-86
2021/06/11 11:07:56;;;;;;;4.00;1.30;;;35.40;52.10;;;;;;5000100;28;20054;-87
2021/06/11 11:10:43;;;;;;;1.10;1.00;;;35.60;50.90;;;;;;4999426;28;20049;-87
2021/06/11 11:13:14;;;;;;;1.50;1.40;;;37.60;48.10;;;;;;4998722;28;20141;-87
2021/06/11 11:15:42;;;;;;;1.50;1.40;;;36.70;47.70;;;;;;4999735;28;20422;-87
2021/06/11 11:18:20;;;;;;;2.00;1.15;;;35.10;48.90;;;;;;4999092;28;20049;-88
2021/06/11 11:20:46;;;;;;;2.70;1.10;;;35.60;49.30;;;;;;5000290;28;20422;-88
2021/06/11 11:23:15;;;;;;;1.10;1.10;;;35.60;49.10;;;;;;4999220;28;20132;-87
2021/06/11 11:25:43;;;;;;;1.05;0.95;;;34.70;50.00;;;;;;4999314;28;20060;-92
2021/06/11 11:28:12;;;;;;;8.70;1.80;;;34.60;51.50;;;;;;4998993;28;20064;-89
2021/06/11 11:30:41;;;;;;;4.40;1.35;;;34.60;51.20;;;;;;5000023;28;20116;-87
2021/06/11 11:33:09;;;;;;;3.53;1.45;;;34.10;50.00;;;;;;4998897;28;20084;-86
2021/06/11 11:35:40;;;;;;;1.50;1.50;;;33.90;52.00;;;;;;4999358;28;20085;-88
2021/06/11 11:38:09;;;;;;;3.78;2.15;;;33.00;51.70;;;;;;4998995;28;20046;-86
2021/06/11 11:40:37;;;;;;;2.20;1.70;;;32.10;52.30;;;;;;5016043;28;20056;-85
2021/06/11 11:43:04;;;;;;;1.98;1.88;;;32.10;53.70;;;;;;4998533;28;20045;-87
2021/06/11 11:45:32;;;;;;;2.20;2.08;;;31.70;54.50;;;;;;4998977;28;20058;-86
2021/06/11 11:48:04;;;;;;;7.18;2.05;;;30.90;55.60;;;;;;4999269;28;20054;-92
2021/06/11 11:50:35;;;;;;;3.38;2.45;;;30.40;56.50;;;;;;4999158;28;20526;-85
2021/06/11 11:53:03;;;;;;;11.32;2.70;;;29.80;57.20;;;;;;4999612;28;20053;-86
2021/06/11 11:55:30;;;;;;;4.32;2.20;;;29.10;58.90;;;;;;4999482;28;20053;-88
2021/06/11 11:57:57;;;;;;;5.70;2.22;;;28.80;59.70;;;;;;4998107;28;20578;-88
2021/06/11 12:00:27;;;;;;;4.30;2.17;;;29.00;61.10;;;;;;4998629;28;20132;-89
2021/06/11 12:02:56;;;;;;;4.65;2.60;;;29.50;59.50;;;;;;4998551;28;20112;-90
2021/06/11 12:05:25;;;;;;;2.47;2.28;;;29.50;59.40;;;;;;4999196;28;20121;-86
2021/06/11 12:07:51;;;;;;;3.13;2.45;;;29.10;58.80;;;;;;4998756;28;20140;-86
2021/06/11 12:10:19;;;;;;;18.90;3.05;;;28.90;59.50;;;;;;4998033;28;20046;-85
2021/06/11 12:12:46;;;;;;;5.25;2.20;;;29.20;60.00;;;;;;4998190;28;20077;-86
2021/06/11 12:15:13;;;;;;;3.55;2.85;;;29.40;59.90;;;;;;4997662;28;20058;-91
2021/06/11 12:17:40;;;;;;;4.20;2.15;;;29.00;59.30;;;;;;4997986;28;20454;-86
2021/06/11 12:20:07;;;;;;;9.15;2.45;;;28.90;61.40;;;;;;4998114;28;20409;-86
2021/06/11 12:22:34;;;;;;;3.85;2.40;;;29.00;61.70;;;;;;4998493;28;20137;-87
2021/06/11 12:25:01;;;;;;;2.78;2.55;;;29.30;61.10;;;;;;4997695;28;20046;-91
2021/06/11 12:27:27;;;;;;;3.60;2.38;;;29.20;61.30;;;;;;4998708;28;20050;-89
2021/06/11 12:29:55;;;;;;;3.63;2.30;;;28.80;60.40;;;;;;4998332;28;20049;-86
2021/06/11 12:32:21;;;;;;;2.63;2.42;;;28.80;61.30;;;;;;4998605;28;20068;-87
2021/06/11 12:34:48;;;;;;;3.78;2.97;;;28.60;62.40;;;;;;4998639;28;20053;-87
2021/06/11 12:37:15;;;;;;;2.72;2.53;;;28.10;62.70;;;;;;4999274;28;20438;-90
2021/06/11 12:39:42;;;;;;;3.05;2.80;;;28.00;65.50;;;;;;4998579;28;20096;-86
2021/06/11 12:42:14;;;;;;;2.83;2.67;;;27.90;65.10;;;;;;4998196;28;20568;-87
2021/06/11 12:44:42;;;;;;;3.33;2.60;;;28.00;65.70;;;;;;4998286;28;20053;-86
2021/06/11 12:47:11;;;;;;;2.88;2.67;;;28.20;68.00;;;;;;5006486;28;20046;-87
2021/06/11 12:49:41;;;;;;;5.55;2.90;;;28.40;65.70;;;;;;5018622;28;20136;-88